Time;durP1;ratioP1;P1;durP2;ratioP2;P2;SDS_P1;SDS_P2;PMS_P1;PMS_P2;Temp;Humidity;BMP_temperature;BMP_pressure;BME280_temperature;BME280_humidity;BME280_pressure;Samples;Min_cycle;Max_cycle;Signal;HPM_P1;HPM_P2
2021/06/12 00:03:35;;;;;;;4.53;3.70;;;;;;;;;;10285045;28;20489;-64
2021/06/12 00:08:33;;;;;;;4.07;3.55;;;;;;;;;;10288661;28;20033;-63
2021/06/12 00:13:31;;;;;;;4.97;3.67;;;;;;;;;;10289681;28;20044;-63
2021/06/12 00:18:28;;;;;;;5.40;4.35;;;;;;;;;;10298435;28;20499;-64
2021/06/12 00:23:26;;;;;;;4.27;3.87;;;;;;;;;;10293976;28;20125;-65
2021/06/12 00:28:23;;;;;;;6.05;4.50;;;;;;;;;;10303088;28;20124;-63
2021/06/12 00:33:21;;;;;;;6.03;4.43;;;;;;;;;;10285757;28;20575;-63
2021/06/12 00:38:18;;;;;;;6.05;5.07;;;;;;;;;;10294523;28;20125;-63
2021/06/12 00:43:16;;;;;;;7.47;6.40;;;;;;;;;;10261624;28;20052;-64
2021/06/12 00:48:14;;;;;;;9.83;6.77;;;;;;;;;;10293239;28;20033;-63
2021/06/12 00:53:11;;;;;;;10.02;7.63;;;;;;;;;;10304184;28;20037;-63
2021/06/12 00:58:09;;;;;;;12.03;8.40;;;;;;;;;;10303381;28;20539;-63
2021/06/12 01:03:07;;;;;;;;;;;;;;;;;;10293997;28;20033;-63
2021/06/12 01:08:04;;;;;;;14.10;7.87;;;;;;;;;;10297658;28;19913;-63
2021/06/12 01:13:07;;;;;;;10.37;7.80;;;;;;;;;;10290819;28;20410;-63
2021/06/12 01:18:10;;;;;;;13.50;8.80;;;;;;;;;;10291408;28;20128;-63
2021/06/12 01:23:11;;;;;;;13.55;8.30;;;;;;;;;;10294513;28;20084;-64
2021/06/12 01:28:11;;;;;;;11.23;7.68;;;;;;;;;;10272596;28;20148;-64
2021/06/12 01:33:10;;;;;;;10.02;7.13;;;;;;;;;;10277651;28;20117;-63
2021/06/12 01:38:11;;;;;;;12.52;7.35;;;;;;;;;;10298759;28;20041;-62
2021/06/12 01:43:10;;;;;;;11.32;7.28;;;;;;;;;;10291234;28;20033;-63
2021/06/12 01:48:09;;;;;;;12.13;7.25;;;;;;;;;;10288823;28;20116;-63
2021/06/12 01:53:07;;;;;;;12.23;7.13;;;;;;;;;;10289018;28;20034;-63
2021/06/12 01:58:09;;;;;;;10.13;7.60;;;;;;;;;;10289841;28;20033;-63
2021/06/12 02:03:06;;;;;;;12.95;7.30;;;;;;;;;;10272800;28;20591;-63
2021/06/12 02:08:05;;;;;;;11.43;7.68;;;;;;;;;;10294242;28;20026;-63
2021/06/12 02:13:02;;;;;;;13.43;9.25;;;;;;;;;;10300040;28;20047;-64
2021/06/12 02:18:02;;;;;;;10.80;7.93;;;;;;;;;;10287161;28;20037;-62
2021/06/12 02:23:01;;;;;;;11.57;7.72;;;;;;;;;;10293407;28;20057;-62
2021/06/12 02:28:01;;;;;;;12.05;8.32;;;;;;;;;;10291768;28;20053;-62
2021/06/12 02:33:00;;;;;;;10.80;8.13;;;;;;;;;;10290177;28;20120;-63
2021/06/12 02:37:57;;;;;;;12.43;8.43;;;;;;;;;;10302038;28;20549;-63
2021/06/12 02:42:55;;;;;;;12.97;9.47;;;;;;;;;;10298796;28;20080;-63
2021/06/12 02:47:58;;;;;;;13.67;8.73;;;;;;;;;;10289209;28;20053;-64
2021/06/12 02:52:57;;;;;;;12.20;8.18;;;;;;;;;;10296780;28;20081;-62
2021/06/12 02:57:55;;;;;;;12.95;8.30;;;;;;;;;;10303544;28;20355;-63
2021/06/12 03:02:53;;;;;;;12.27;9.00;;;;;;;;;;10300305;28;20033;-63
2021/06/12 03:07:53;;;;;;;10.65;7.75;;;;;;;;;;10303705;28;20137;-62
2021/06/12 03:12:50;;;;;;;10.82;8.25;;;;;;;;;;10343558;28;20502;-63
2021/06/12 03:17:48;;;;;;;11.47;7.67;;;;;;;;;;10343868;28;20059;-62
2021/06/12 03:22:48;;;;;;;14.65;7.82;;;;;;;;;;10299347;28;20038;-62
2021/06/12 03:27:45;;;;;;;12.80;9.10;;;;;;;;;;10302730;28;20406;-63
2021/06/12 03:32:43;;;;;;;13.40;8.97;;;;;;;;;;10301945;28;20132;-63
2021/06/12 03:37:41;;;;;;;10.93;8.33;;;;;;;;;;10257701;28;20579;-62
2021/06/12 03:42:39;;;;;;;13.45;9.05;;;;;;;;;;10277578;28;20091;-62
2021/06/12 03:47:37;;;;;;;13.88;9.85;;;;;;;;;;10300928;28;20120;-62
2021/06/12 03:52:35;;;;;;;14.32;9.07;;;;;;;;;;10296829;28;20042;-63
2021/06/12 03:57:33;;;;;;;;;;;;;;;;;;10302769;28;20511;-63
2021/06/12 04:02:30;;;;;;;14.43;10.23;;;;;;;;;;10302035;28;19928;-63
2021/06/12 04:07:28;;;;;;;13.87;10.67;;;;;;;;;;10302281;28;20040;-63
2021/06/12 04:12:25;;;;;;;17.43;11.43;;;;;;;;;;10301614;28;20124;-62
2021/06/12 04:17:22;;;;;;;15.70;11.13;;;;;;;;;;10301947;28;20060;-63
2021/06/12 04:22:20;;;;;;;17.27;11.87;;;;;;;;;;10301152;28;20030;-63
2021/06/12 04:27:17;;;;;;;16.73;10.67;;;;;;;;;;10284062;28;20049;-62
2021/06/12 04:32:15;;;;;;;15.03;9.83;;;;;;;;;;10294449;28;20033;-62
2021/06/12 04:37:12;;;;;;;14.73;10.93;;;;;;;;;;10301575;28;20120;-63
2021/06/12 04:42:10;;;;;;;15.40;8.27;;;;;;;;;;10282666;28;20066;-62
2021/06/12 04:47:08;;;;;;;16.10;10.27;;;;;;;;;;10297402;28;20276;-62
2021/06/12 04:52:06;;;;;;;15.57;10.07;;;;;;;;;;10309002;28;20029;-63
2021/06/12 04:57:03;;;;;;;14.30;8.33;;;;;;;;;;10307976;28;20052;-62
2021/06/12 05:02:01;;;;;;;16.30;10.40;;;;;;;;;;10286635;28;20045;-62
2021/06/12 05:06:58;;;;;;;14.33;9.17;;;;;;;;;;10308462;28;20045;-63
2021/06/12 05:11:57;;;;;;;12.40;8.90;;;;;;;;;;10308000;28;20095;-62
2021/06/12 05:16:54;;;;;;;12.80;8.15;;;;;;;;;;10307623;28;20124;-62
2021/06/12 05:21:52;;;;;;;14.97;9.73;;;;;;;;;;10303458;28;20068;-64
2021/06/12 05:26:49;;;;;;;13.43;9.90;;;;;;;;;;10307175;28;20125;-63
2021/06/12 05:31:47;;;;;;;15.73;9.57;;;;;;;;;;10307755;28;20041;-63
2021/06/12 05:36:44;;;;;;;14.00;9.30;;;;;;;;;;10288391;28;20049;-62
2021/06/12 05:41:42;;;;;;;12.93;9.27;;;;;;;;;;10291667;28;20455;-62
2021/06/12 05:46:39;;;;;;;15.40;9.43;;;;;;;;;;10296900;28;20038;-62
2021/06/12 05:51:37;;;;;;;11.63;8.47;;;;;;;;;;10304878;28;20275;-63
2021/06/12 05:56:34;;;;;;;13.43;9.67;;;;;;;;;;10306407;28;20046;-63
2021/06/12 06:01:32;;;;;;;12.17;9.47;;;;;;;;;;10304655;28;20452;-62
2021/06/12 06:06:29;;;;;;;14.70;9.27;;;;;;;;;;10305995;28;20038;-62
2021/06/12 06:11:26;;;;;;;15.17;9.00;;;;;;;;;;10297501;28;20068;-62
2021/06/12 06:16:24;;;;;;;13.63;8.53;;;;;;;;;;10263621;22;20420;-66
2021/06/12 06:21:22;;;;;;;12.68;8.60;;;;;;;;;;10251209;28;20372;-66
2021/06/12 06:26:20;;;;;;;10.77;8.00;;;;;;;;;;10239922;28;20046;-66
2021/06/12 06:31:17;;;;;;;11.83;8.77;;;;;;;;;;10228790;28;20038;-66
2021/06/12 06:36:15;;;;;;;10.27;7.30;;;;;;;;;;10239434;28;20129;-66
2021/06/12 06:41:12;;;;;;;9.83;6.70;;;;;;;;;;10204028;28;20045;-66
2021/06/12 06:51:30;;;;;;;6.43;4.25;;;;;;;;;;10243335;28;20160;-65
2021/06/12 06:56:28;;;;;;;7.47;3.00;;;;;;;;;;10284163;28;20049;-65
2021/06/12 07:01:26;;;;;;;6.83;3.80;;;;;;;;;;10284040;28;20060;-65
2021/06/12 07:06:24;;;;;;;;;;;;;;;;;;10307430;28;20195;-65
2021/06/12 07:11:21;;;;;;;6.18;3.42;;;;;;;;;;10319571;28;19916;-65
2021/06/12 07:16:19;;;;;;;6.70;3.73;;;;;;;;;;10316731;28;20057;-65
2021/06/12 07:21:16;;;;;;;8.73;3.97;;;;;;;;;;10280490;28;20082;-65
2021/06/12 07:26:14;;;;;;;5.27;3.30;;;;;;;;;;10285274;28;20065;-65
2021/06/12 07:31:11;;;;;;;5.27;2.83;;;;;;;;;;10304251;28;20280;-65
2021/06/12 07:36:09;;;;;;;7.53;3.30;;;;;;;;;;10291033;28;20495;-66
2021/06/12 07:41:07;;;;;;;7.07;3.25;;;;;;;;;;10313882;28;20098;-65
2021/06/12 07:46:04;;;;;;;8.40;2.93;;;;;;;;;;10299506;28;20410;-65
2021/06/12 07:51:02;;;;;;;4.80;2.53;;;;;;;;;;10279949;28;20103;-65
2021/06/12 07:56:00;;;;;;;6.03;3.20;;;;;;;;;;10311566;28;20448;-65
2021/06/12 08:00:57;;;;;;;3.87;2.50;;;;;;;;;;10289061;28;20448;-65
2021/06/12 08:05:55;;;;;;;6.60;3.13;;;;;;;;;;10294558;28;20489;-65
2021/06/12 08:10:53;;;;;;;5.63;2.85;;;;;;;;;;10319713;28;20021;-65
2021/06/12 08:15:50;;;;;;;5.93;2.10;;;;;;;;;;10300786;28;20140;-65
2021/06/12 08:20:49;;;;;;;8.60;2.33;;;;;;;;;;10291303;28;20039;-65
2021/06/12 08:25:47;;;;;;;5.25;2.65;;;;;;;;;;10314296;28;20386;-66
2021/06/12 08:30:44;;;;;;;;;;;;;;;;;;10310223;28;20124;-65
2021/06/12 08:35:42;;;;;;;4.07;1.70;;;;;;;;;;10327770;28;20345;-66
2021/06/12 08:40:39;;;;;;;5.53;2.13;;;;;;;;;;10294128;28;20132;-65
2021/06/12 08:45:39;;;;;;;4.87;1.93;;;;;;;;;;10317675;28;20045;-65
2021/06/12 08:50:37;;;;;;;6.40;2.10;;;;;;;;;;10296424;28;20590;-65
2021/06/12 08:55:34;;;;;;;8.73;2.17;;;;;;;;;;10321193;28;20578;-65
2021/06/12 09:00:32;;;;;;;5.67;1.97;;;;;;;;;;10325238;28;20651;-65
2021/06/12 09:05:45;;;;;;;3.80;1.35;;;;;;;;;;10322490;28;20415;-65
2021/06/12 09:10:56;;;;;;;6.55;1.88;;;;;;;;;;10303685;28;20046;-65
2021/06/12 09:15:57;;;;;;;3.90;1.85;;;;;;;;;;10324159;28;20055;-65
2021/06/12 09:20:55;;;;;;;4.25;1.80;;;;;;;;;;10318217;28;20041;-65
2021/06/12 09:25:52;;;;;;;3.90;1.90;;;;;;;;;;10295189;28;20030;-65
2021/06/12 09:30:50;;;;;;;4.38;1.40;;;;;;;;;;10295255;28;20229;-65
2021/06/12 09:35:47;;;;;;;5.07;1.60;;;;;;;;;;10311666;28;20033;-65
2021/06/12 09:40:45;;;;;;;5.82;1.50;;;;;;;;;;10295128;28;20052;-65
2021/06/12 09:45:42;;;;;;;;;;;;;;;;;;10306834;28;20037;-65
2021/06/12 09:50:40;;;;;;;6.15;1.55;;;;;;;;;;10302146;28;20395;-65
2021/06/12 09:55:38;;;;;;;5.93;1.60;;;;;;;;;;10325797;28;20041;-65
2021/06/12 10:00:36;;;;;;;;;;;;;;;;;;10288320;28;20030;-65
2021/06/12 10:05:33;;;;;;;4.50;1.60;;;;;;;;;;10306505;28;20271;-65
2021/06/12 10:10:30;;;;;;;;;;;;;;;;;;10301503;28;20037;-65
2021/06/12 10:15:28;;;;;;;4.97;1.50;;;;;;;;;;10304341;28;19994;-65
2021/06/12 10:20:26;;;;;;;3.35;1.20;;;;;;;;;;10256465;28;20045;-65
2021/06/12 10:25:24;;;;;;;4.90;1.52;;;;;;;;;;10301424;28;20095;-66
2021/06/12 10:30:24;;;;;;;6.50;1.83;;;;;;;;;;10285079;28;20045;-66
2021/06/12 10:35:22;;;;;;;2.70;1.10;;;;;;;;;;10301890;28;20092;-65
2021/06/12 10:40:33;;;;;;;5.43;1.70;;;;;;;;;;10289403;28;20335;-65
2021/06/12 10:45:31;;;;;;;5.15;1.17;;;;;;;;;;10303755;28;20037;-66
2021/06/12 10:50:29;;;;;;;6.10;1.80;;;;;;;;;;10304664;28;20518;-66
2021/06/12 10:55:46;;;;;;;4.60;1.33;;;;;;;;;;10301607;28;20320;-65
2021/06/12 11:01:02;;;;;;;4.47;1.30;;;;;;;;;;10307232;28;20029;-65
2021/06/12 11:06:18;;;;;;;2.47;1.30;;;;;;;;;;10288531;28;20045;-65
2021/06/12 11:11:32;;;;;;;4.88;1.50;;;;;;;;;;10346492;28;20083;-65
2021/06/12 11:16:29;;;;;;;4.35;1.27;;;;;;;;;;10350402;28;20076;-65
2021/06/12 11:21:26;;;;;;;3.97;1.70;;;;;;;;;;10325276;28;20021;-66
2021/06/12 11:26:24;;;;;;;3.87;1.33;;;;;;;;;;10346779;28;20282;-66
2021/06/12 11:31:24;;;;;;;5.38;1.73;;;;;;;;;;10342544;28;20118;-66
2021/06/12 11:36:25;;;;;;;4.03;0.98;;;;;;;;;;10270446;28;20048;-66
2021/06/12 11:41:23;;;;;;;6.35;1.30;;;;;;;;;;10299074;28;20475;-66
2021/06/12 11:46:34;;;;;;;2.88;1.05;;;;;;;;;;10311139;28;20415;-66
2021/06/12 11:51:33;;;;;;;6.38;2.03;;;;;;;;;;10299674;28;20037;-66
2021/06/12 11:56:35;;;;;;;4.50;1.63;;;;;;;;;;10302095;28;20095;-66
2021/06/12 12:01:36;;;;;;;6.43;1.40;;;;;;;;;;10287747;28;20033;-67
2021/06/12 12:06:34;;;;;;;6.78;1.35;;;;;;;;;;10308117;28;20512;-66
2021/06/12 12:11:32;;;;;;;5.65;1.67;;;;;;;;;;10303633;28;20392;-66
2021/06/12 12:16:30;;;;;;;7.85;1.85;;;;;;;;;;10307653;28;20125;-66
2021/06/12 12:21:48;;;;;;;6.35;1.92;;;;;;;;;;10309227;28;20072;-66
2021/06/12 12:27:08;;;;;;;5.13;1.70;;;;;;;;;;10308548;28;20072;-66
2021/06/12 12:32:06;;;;;;;19.05;2.50;;;;;;;;;;10350264;28;20044;-66
2021/06/12 12:37:07;;;;;;;7.55;1.75;;;;;;;;;;10339408;28;20041;-66
2021/06/12 12:42:06;;;;;;;4.70;1.15;;;;;;;;;;10347096;28;20037;-66
2021/06/12 12:47:04;;;;;;;3.83;1.30;;;;;;;;;;10363640;28;20422;-66
2021/06/12 12:52:03;;;;;;;4.80;1.30;;;;;;;;;;10330988;28;20032;-66
2021/06/12 12:57:08;;;;;;;6.60;1.80;;;;;;;;;;10314093;28;20044;-66
2021/06/12 13:02:09;;;;;;;4.70;1.67;;;;;;;;;;10324164;28;20060;-66
2021/06/12 13:07:06;;;;;;;5.70;1.50;;;;;;;;;;10340157;28;20515;-66
2021/06/12 13:12:06;;;;;;;3.65;1.08;;;;;;;;;;10346318;28;20507;-67
2021/06/12 13:17:09;;;;;;;5.20;1.10;;;;;;;;;;10358500;28;20048;-66
2021/06/12 13:22:08;;;;;;;3.17;0.93;;;;;;;;;;10306408;28;20070;-66
2021/06/12 13:27:05;;;;;;;5.80;1.90;;;;;;;;;;10341675;28;20079;-66
2021/06/12 13:32:09;;;;;;;3.90;1.17;;;;;;;;;;10348198;28;20526;-66
2021/06/12 13:37:07;;;;;;;4.68;1.40;;;;;;;;;;10342763;28;20551;-66
2021/06/12 13:42:12;;;;;;;6.15;2.70;;;;;;;;;;10329042;28;20113;-66
2021/06/12 13:47:09;;;;;;;4.38;1.13;;;;;;;;;;10338037;28;20044;-66
2021/06/12 13:52:10;;;;;;;6.03;1.70;;;;;;;;;;10348010;28;20024;-66
2021/06/12 13:57:07;;;;;;;4.70;2.13;;;;;;;;;;10315803;28;20380;-66
2021/06/12 14:02:05;;;;;;;6.30;2.60;;;;;;;;;;10343336;28;20530;-66
2021/06/12 14:07:02;;;;;;;7.57;3.27;;;;;;;;;;10340362;28;20286;-65
2021/06/12 14:12:00;;;;;;;4.25;1.95;;;;;;;;;;10328619;28;20276;-66
2021/06/12 14:16:58;;;;;;;6.63;2.78;;;;;;;;;;10348955;28;20123;-66
2021/06/12 14:21:55;;;;;;;8.23;2.65;;;;;;;;;;10314964;28;20114;-66
2021/06/12 14:26:54;;;;;;;4.25;1.52;;;;;;;;;;10344787;28;20063;-65
2021/06/12 14:31:51;;;;;;;3.97;1.70;;;;;;;;;;10322523;28;20431;-65
2021/06/12 14:36:48;;;;;;;;;;;;;;;;;;10345352;28;20120;-65
2021/06/12 14:41:46;;;;;;;3.60;1.30;;;;;;;;;;10345037;28;20397;-66
2021/06/12 14:46:44;;;;;;;5.40;1.58;;;;;;;;;;10310726;28;20065;-65
2021/06/12 14:51:42;;;;;;;6.80;2.45;;;;;;;;;;10329920;28;20047;-65
2021/06/12 14:56:41;;;;;;;4.82;1.40;;;;;;;;;;10330260;28;20041;-65
2021/06/12 15:01:38;;;;;;;3.78;1.48;;;;;;;;;;10346594;28;20033;-66
2021/06/12 15:06:36;;;;;;;;;;;;;;;;;;10342912;28;20040;-65
2021/06/12 15:11:33;;;;;;;7.43;1.50;;;;;;;;;;10346560;28;19912;-65
2021/06/12 15:16:30;;;;;;;;;;;;;;;;;;10340504;28;20036;-65
2021/06/12 15:21:28;;;;;;;9.00;2.30;;;;;;;;;;10320560;28;19921;-65
2021/06/12 15:26:25;;;;;;;9.35;2.72;;;;;;;;;;10332141;28;20129;-65
2021/06/12 15:31:23;;;;;;;7.43;2.30;;;;;;;;;;10340413;28;20051;-65
2021/06/12 15:36:21;;;;;;;;;;;;;;;;;;10322913;28;20543;-66
2021/06/12 15:41:19;;;;;;;6.65;2.15;;;;;;;;;;10338762;28;19917;-65
2021/06/12 15:46:17;;;;;;;8.18;2.80;;;;;;;;;;10340791;28;20041;-65
2021/06/12 15:51:15;;;;;;;6.65;1.95;;;;;;;;;;10340462;28;20049;-65
2021/06/12 15:56:12;;;;;;;9.57;2.20;;;;;;;;;;10339217;28;20033;-65
2021/06/12 16:01:10;;;;;;;8.35;2.55;;;;;;;;;;10340934;28;20039;-65
2021/06/12 16:06:07;;;;;;;7.65;2.55;;;;;;;;;;10316766;28;20410;-64
2021/06/12 16:11:05;;;;;;;10.80;2.90;;;;;;;;;;10319254;28;20048;-65
2021/06/12 16:16:02;;;;;;;10.85;3.00;;;;;;;;;;10321272;28;20040;-64
2021/06/12 16:21:00;;;;;;;6.40;2.40;;;;;;;;;;10344861;28;20503;-65
2021/06/12 16:25:57;;;;;;;;;;;;;;;;;;10320603;28;20124;-65
2021/06/12 16:30:54;;;;;;;9.40;2.65;;;;;;;;;;10339940;28;19917;-66
2021/06/12 16:35:52;;;;;;;6.82;2.55;;;;;;;;;;10325260;28;20045;-66
2021/06/12 16:40:49;;;;;;;;;;;;;;;;;;10323953;28;20040;-65
2021/06/12 16:45:47;;;;;;;8.32;2.22;;;;;;;;;;10344288;28;19921;-65
2021/06/12 16:50:44;;;;;;;6.32;1.73;;;;;;;;;;10339042;28;20402;-66
2021/06/12 16:55:56;;;;;;;4.20;1.30;;;;;;;;;;10335963;28;20554;-66
2021/06/12 17:00:53;;;;;;;3.42;1.02;;;;;;;;;;10320334;28;20320;-66
2021/06/12 17:05:51;;;;;;;;;;;;;;;;;;10320885;28;20098;-65
2021/06/12 17:10:52;;;;;;;4.07;1.30;;;;;;;;;;10321258;28;19917;-65
2021/06/12 17:15:49;;;;;;;7.10;1.60;;;;;;;;;;10335400;28;20040;-66
2021/06/12 17:20:46;;;;;;;;;;;;;;;;;;10295386;28;20281;-65
2021/06/12 17:25:44;;;;;;;3.78;1.17;;;;;;;;;;10290668;28;19970;-65
2021/06/12 17:30:42;;;;;;;;;;;;;;;;;;10295728;28;20107;-65
2021/06/12 17:35:40;;;;;;;5.10;1.57;;;;;;;;;;10310446;28;19917;-65
2021/06/12 17:40:38;;;;;;;5.72;1.30;;;;;;;;;;10296123;28;20034;-65
2021/06/12 17:45:36;;;;;;;8.52;1.33;;;;;;;;;;10292340;28;20257;-65
2021/06/12 17:50:33;;;;;;;;;;;;;;;;;;10292285;28;20041;-65
2021/06/12 17:55:31;;;;;;;5.60;1.90;;;;;;;;;;10284034;28;20280;-65
2021/06/12 18:00:29;;;;;;;;;;;;;;;;;;10279133;28;20518;-65
2021/06/12 18:05:28;;;;;;;6.75;1.75;;;;;;;;;;10299625;28;20276;-65
2021/06/12 18:10:25;;;;;;;1.70;1.00;;;;;;;;;;10316443;28;20085;-65
2021/06/12 18:15:23;;;;;;;7.47;2.47;;;;;;;;;;10336589;28;20183;-65
2021/06/12 18:20:20;;;;;;;3.33;1.70;;;;;;;;;;10310549;28;20537;-65
2021/06/12 18:25:18;;;;;;;5.67;1.77;;;;;;;;;;10331200;28;20040;-65
2021/06/12 18:30:16;;;;;;;9.73;3.13;;;;;;;;;;10324986;28;20087;-65
2021/06/12 18:35:16;;;;;;;6.85;3.20;;;;;;;;;;10305093;28;20491;-66
2021/06/12 18:40:14;;;;;;;8.13;2.92;;;;;;;;;;10316420;28;20032;-66
2021/06/12 18:45:12;;;;;;;;;;;;;;;;;;10287448;28;21324;-66
2021/06/12 18:50:10;;;;;;;6.53;2.85;;;;;;;;;;10268612;28;20012;-66
2021/06/12 18:55:09;;;;;;;7.28;3.05;;;;;;;;;;10279044;28;20318;-66
2021/06/12 19:00:08;;;;;;;7.97;3.00;;;;;;;;;;10276114;28;20021;-66
2021/06/12 19:05:06;;;;;;;8.98;3.15;;;;;;;;;;10258023;28;20034;-65
2021/06/12 19:10:05;;;;;;;7.57;3.05;;;;;;;;;;10270626;28;20038;-65
2021/06/12 19:15:04;;;;;;;10.32;2.90;;;;;;;;;;10256082;28;20033;-66
2021/06/12 19:20:02;;;;;;;6.38;3.05;;;;;;;;;;10270167;28;20092;-66
2021/06/12 19:24:59;;;;;;;;;;;;;;;;;;10276558;28;20040;-66
2021/06/12 19:29:57;;;;;;;8.13;3.72;;;;;;;;;;10292194;28;19923;-66
2021/06/12 19:34:56;;;;;;;8.27;3.17;;;;;;;;;;10274534;28;20038;-66
2021/06/12 19:39:54;;;;;;;4.38;1.85;;;;;;;;;;10260030;28;20044;-66
2021/06/12 19:44:51;;;;;;;14.50;3.60;;;;;;;;;;10283803;28;20049;-65
2021/06/12 19:49:49;;;;;;;8.77;3.60;;;;;;;;;;10261636;28;20470;-66
2021/06/12 19:54:46;;;;;;;9.10;3.37;;;;;;;;;;10260945;28;20048;-66
2021/06/12 19:59:43;;;;;;;9.70;3.30;;;;;;;;;;10270423;28;20115;-65
2021/06/12 20:04:41;;;;;;;9.87;3.40;;;;;;;;;;10270805;28;20125;-66
2021/06/12 20:09:38;;;;;;;8.73;3.17;;;;;;;;;;10255264;28;20127;-66
2021/06/12 20:14:36;;;;;;;8.63;3.43;;;;;;;;;;10249278;28;20041;-66
2021/06/12 20:19:33;;;;;;;13.17;4.43;;;;;;;;;;10284003;28;20030;-66
2021/06/12 20:24:31;;;;;;;6.77;2.90;;;;;;;;;;10280915;28;20151;-65
2021/06/12 20:29:28;;;;;;;9.60;3.87;;;;;;;;;;10263255;28;20038;-66
2021/06/12 20:34:26;;;;;;;8.07;3.10;;;;;;;;;;10272287;28;20033;-65
2021/06/12 20:39:23;;;;;;;8.37;2.77;;;;;;;;;;10288173;28;20134;-66
2021/06/12 20:44:20;;;;;;;9.00;2.93;;;;;;;;;;10282652;28;20030;-66
2021/06/12 20:49:18;;;;;;;5.87;2.30;;;;;;;;;;10256069;28;20038;-66
2021/06/12 20:54:15;;;;;;;6.67;2.80;;;;;;;;;;10263639;28;20457;-65
2021/06/12 20:59:13;;;;;;;7.83;2.63;;;;;;;;;;10276691;28;20034;-65
2021/06/12 21:04:11;;;;;;;7.60;2.87;;;;;;;;;;10273175;28;20029;-65
2021/06/12 21:09:08;;;;;;;8.13;2.93;;;;;;;;;;10276249;28;20034;-65
2021/06/12 21:14:06;;;;;;;8.07;2.70;;;;;;;;;;10266351;28;20155;-65
2021/06/12 21:19:03;;;;;;;10.10;3.13;;;;;;;;;;10301145;28;20037;-65
2021/06/12 21:24:01;;;;;;;6.13;2.57;;;;;;;;;;10283089;28;20472;-66
2021/06/12 21:28:58;;;;;;;8.57;2.30;;;;;;;;;;10300774;28;20030;-65
2021/06/12 21:33:56;;;;;;;5.83;1.90;;;;;;;;;;10308511;28;20037;-65
2021/06/12 21:38:53;;;;;;;10.67;3.10;;;;;;;;;;10299019;28;20038;-65
2021/06/12 21:43:50;;;;;;;5.80;2.13;;;;;;;;;;10276084;28;20949;-65
2021/06/12 21:48:48;;;;;;;7.03;2.40;;;;;;;;;;10289511;28;20041;-65
2021/06/12 21:53:45;;;;;;;9.80;2.80;;;;;;;;;;10288747;28;20041;-65
2021/06/12 21:58:43;;;;;;;7.40;3.17;;;;;;;;;;10287620;28;20033;-65
2021/06/12 22:03:40;;;;;;;12.23;3.07;;;;;;;;;;10291346;28;20033;-65
2021/06/12 22:08:38;;;;;;;9.40;2.47;;;;;;;;;;10274857;28;20172;-65
2021/06/12 22:13:35;;;;;;;11.43;3.13;;;;;;;;;;10304563;28;20047;-65
2021/06/12 22:18:33;;;;;;;6.97;3.20;;;;;;;;;;10283571;28;20033;-64
2021/06/12 22:23:32;;;;;;;9.20;3.70;;;;;;;;;;10290327;28;20033;-64
2021/06/12 22:28:30;;;;;;;9.20;3.15;;;;;;;;;;10278117;28;20488;-64
2021/06/12 22:33:27;;;;;;;6.80;3.10;;;;;;;;;;10248374;28;20446;-63
2021/06/12 22:38:25;;;;;;;7.67;2.40;;;;;;;;;;10282435;28;20123;-64
2021/06/12 22:43:25;;;;;;;11.03;3.00;;;;;;;;;;10291495;28;20034;-64
2021/06/12 22:48:23;;;;;;;9.57;3.08;;;;;;;;;;10287934;28;20350;-64
2021/06/12 22:53:20;;;;;;;9.63;3.37;;;;;;;;;;10269751;28;20041;-64
2021/06/12 22:58:18;;;;;;;10.53;3.07;;;;;;;;;;10260878;28;20464;-64
2021/06/12 23:03:15;;;;;;;5.87;2.90;;;;;;;;;;10265125;28;20503;-64
2021/06/12 23:08:13;;;;;;;11.03;2.80;;;;;;;;;;10301329;28;20043;-64
2021/06/12 23:13:10;;;;;;;12.53;3.10;;;;;;;;;;10286689;28;20048;-64
2021/06/12 23:18:08;;;;;;;7.93;2.60;;;;;;;;;;10293424;28;20407;-64
2021/06/12 23:23:06;;;;;;;4.03;1.60;;;;;;;;;;10267670;28;20111;-64
2021/06/12 23:28:03;;;;;;;8.47;2.83;;;;;;;;;;10275937;28;20046;-65
2021/06/12 23:33:01;;;;;;;9.90;3.67;;;;;;;;;;10248510;28;20033;-65
2021/06/12 23:37:58;;;;;;;8.33;3.37;;;;;;;;;;10290095;28;20044;-65
2021/06/12 23:42:56;;;;;;;6.73;2.83;;;;;;;;;;10271816;28;20045;-65
2021/06/12 23:47:53;;;;;;;8.20;3.17;;;;;;;;;;10291014;28;20044;-65
2021/06/12 23:52:51;;;;;;;8.87;2.83;;;;;;;;;;10284366;28;20033;-64
2021/06/12 23:57:48;;;;;;;9.93;3.20;;;;;;;;;;10282944;28;20036;-64
